sensor_id;sensor_type;location;lat;lon;timestamp;temperature;humidity
70820;DHT22;58439;51.046;13.692;2022-10-16T00:08:17;13.80;99.90
70820;DHT22;58439;51.046;13.692;2022-10-16T00:26:59;13.80;99.90
70820;DHT22;58439;51.046;13.692;2022-10-16T01:12:57;13.40;99.90
70820;DHT22;58439;51.046;13.692;2022-10-16T01:15:34;13.40;99.90
70820;DHT22;58439;51.046;13.692;2022-10-16T01:21:19;13.40;99.90
70820;DHT22;58439;51.046;13.692;2022-10-16T01:27:13;13.40;99.90
70820;DHT22;58439;51.046;13.692;2022-10-16T01:29:52;13.40;99.90
70820;DHT22;58439;51.046;13.692;2022-10-16T01:32:36;13.50;99.90
70820;DHT22;58439;51.046;13.692;2022-10-16T01:35:27;13.60;99.90
70820;DHT22;58439;51.046;13.692;2022-10-16T01:41:01;13.70;99.90
70820;DHT22;58439;51.046;13.692;2022-10-16T01:43:44;13.70;99.90
70820;DHT22;58439;51.046;13.692;2022-10-16T01:46:16;13.80;99.90
70820;DHT22;58439;51.046;13.692;2022-10-16T02:08:17;14.10;99.90
70820;DHT22;58439;51.046;13.692;2022-10-16T02:10:45;14.10;99.90
70820;DHT22;58439;51.046;13.692;2022-10-16T02:13:39;14.10;99.90
70820;DHT22;58439;51.046;13.692;2022-10-16T02:16:38;14.20;99.90
70820;DHT22;58439;51.046;13.692;2022-10-16T02:19:12;14.20;99.90
70820;DHT22;58439;51.046;13.692;2022-10-16T02:22:09;14.20;99.90
70820;DHT22;58439;51.046;13.692;2022-10-16T02:46:51;14.50;99.90
70820;DHT22;58439;51.046;13.692;2022-10-16T02:49:51;14.50;99.90
70820;DHT22;58439;51.046;13.692;2022-10-16T02:52:25;14.50;99.90
70820;DHT22;58439;51.046;13.692;2022-10-16T02:54:54;14.50;99.90
70820;DHT22;58439;51.046;13.692;2022-10-16T02:57:21;14.60;99.90
70820;DHT22;58439;51.046;13.692;2022-10-16T02:59:49;14.60;99.90
70820;DHT22;58439;51.046;13.692;2022-10-16T03:02:16;14.60;99.90
70820;DHT22;58439;51.046;13.692;2022-10-16T03:44:06;13.80;99.90
70820;DHT22;58439;51.046;13.692;2022-10-16T03:46:33;13.90;99.90
70820;DHT22;58439;51.046;13.692;2022-10-16T03:49:00;13.80;99.90
70820;DHT22;58439;51.046;13.692;2022-10-16T03:51:33;13.80;99.90
70820;DHT22;58439;51.046;13.692;2022-10-16T03:54:00;13.80;99.90
70820;DHT22;58439;51.046;13.692;2022-10-16T03:56:27;13.70;99.90
70820;DHT22;58439;51.046;13.692;2022-10-16T03:58:55;13.80;99.90
70820;DHT22;58439;51.046;13.692;2022-10-16T04:12:21;13.80;99.90
70820;DHT22;58439;51.046;13.692;2022-10-16T04:31:27;13.90;99.90
70820;DHT22;58439;51.046;13.692;2022-10-16T04:33:55;14.00;99.90
70820;DHT22;58439;51.046;13.692;2022-10-16T04:36:32;14.00;99.90
70820;DHT22;58439;51.046;13.692;2022-10-16T04:39:26;14.00;99.90
70820;DHT22;58439;51.046;13.692;2022-10-16T04:42:22;14.00;99.90
70820;DHT22;58439;51.046;13.692;2022-10-16T04:44:56;14.00;99.90
70820;DHT22;58439;51.046;13.692;2022-10-16T04:47:26;14.10;99.90
70820;DHT22;58439;51.046;13.692;2022-10-16T04:49:54;14.10;99.90
70820;DHT22;58439;51.046;13.692;2022-10-16T04:52:47;14.10;99.90
70820;DHT22;58439;51.046;13.692;2022-10-16T04:55:22;14.10;99.90
70820;DHT22;58439;51.046;13.692;2022-10-16T04:57:49;14.10;99.90
70820;DHT22;58439;51.046;13.692;2022-10-16T05:00:17;14.10;99.90
70820;DHT22;58439;51.046;13.692;2022-10-16T05:02:44;14.10;99.90
70820;DHT22;58439;51.046;13.692;2022-10-16T05:05:11;14.10;99.90
70820;DHT22;58439;51.046;13.692;2022-10-16T05:07:42;14.10;99.90
70820;DHT22;58439;51.046;13.692;2022-10-16T05:10:16;14.10;99.90
70820;DHT22;58439;51.046;13.692;2022-10-16T05:12:44;14.10;99.90
70820;DHT22;58439;51.046;13.692;2022-10-16T05:15:11;14.10;99.90
70820;DHT22;58439;51.046;13.692;2022-10-16T05:17:38;14.10;99.90
70820;DHT22;58439;51.046;13.692;2022-10-16T05:20:12;14.10;99.90
70820;DHT22;58439;51.046;13.692;2022-10-16T05:22:39;14.10;99.90
70820;DHT22;58439;51.046;13.692;2022-10-16T05:25:07;14.10;99.90
70820;DHT22;58439;51.046;13.692;2022-10-16T05:27:50;14.10;99.90
70820;DHT22;58439;51.046;13.692;2022-10-16T05:46:01;14.10;99.90
70820;DHT22;58439;51.046;13.692;2022-10-16T05:48:43;14.20;99.90
70820;DHT22;58439;51.046;13.692;2022-10-16T05:52:10;14.20;99.90
70820;DHT22;58439;51.046;13.692;2022-10-16T05:58:43;14.20;99.90
70820;DHT22;58439;51.046;13.692;2022-10-16T06:02:21;14.20;99.90
70820;DHT22;58439;51.046;13.692;2022-10-16T06:05:26;14.30;99.90
70820;DHT22;58439;51.046;13.692;2022-10-16T06:08:02;14.20;99.90
70820;DHT22;58439;51.046;13.692;2022-10-16T06:11:14;14.30;99.90
70820;DHT22;58439;51.046;13.692;2022-10-16T06:15:08;14.30;99.90
70820;DHT22;58439;51.046;13.692;2022-10-16T06:17:35;14.30;99.90
70820;DHT22;58439;51.046;13.692;2022-10-16T06:20:03;14.40;99.90
70820;DHT22;58439;51.046;13.692;2022-10-16T06:22:48;14.40;99.90
70820;DHT22;58439;51.046;13.692;2022-10-16T06:25:15;14.50;99.90
70820;DHT22;58439;51.046;13.692;2022-10-16T06:38:05;14.80;99.90
70820;DHT22;58439;51.046;13.692;2022-10-16T06:57:34;15.40;99.80
70820;DHT22;58439;51.046;13.692;2022-10-16T07:00:02;15.50;99.70
70820;DHT22;58439;51.046;13.692;2022-10-16T07:02:30;15.50;99.70
70820;DHT22;58439;51.046;13.692;2022-10-16T07:04:57;15.50;99.70
70820;DHT22;58439;51.046;13.692;2022-10-16T07:07:24;15.60;99.90
70820;DHT22;58439;51.046;13.692;2022-10-16T07:09:53;15.60;99.80
70820;DHT22;58439;51.046;13.692;2022-10-16T07:12:20;15.70;99.50
70820;DHT22;58439;51.046;13.692;2022-10-16T07:14:47;15.70;99.70
70820;DHT22;58439;51.046;13.692;2022-10-16T07:17:14;15.80;99.90
70820;DHT22;58439;51.046;13.692;2022-10-16T07:19:42;15.90;99.80
70820;DHT22;58439;51.046;13.692;2022-10-16T07:22:09;16.00;99.80
70820;DHT22;58439;51.046;13.692;2022-10-16T07:24:36;16.10;99.10
70820;DHT22;58439;51.046;13.692;2022-10-16T07:27:03;16.20;98.70
70820;DHT22;58439;51.046;13.692;2022-10-16T07:29:30;16.10;98.10
70820;DHT22;58439;51.046;13.692;2022-10-16T07:31:58;16.20;98.10
70820;DHT22;58439;51.046;13.692;2022-10-16T07:34:25;16.10;98.30
70820;DHT22;58439;51.046;13.692;2022-10-16T07:36:53;16.10;98.20
70820;DHT22;58439;51.046;13.692;2022-10-16T07:39:20;16.10;98.30
70820;DHT22;58439;51.046;13.692;2022-10-16T07:41:48;16.10;98.30
70820;DHT22;58439;51.046;13.692;2022-10-16T07:44:15;16.10;98.10
70820;DHT22;58439;51.046;13.692;2022-10-16T07:46:43;16.20;98.10
70820;DHT22;58439;51.046;13.692;2022-10-16T07:49:10;16.30;98.40
70820;DHT22;58439;51.046;13.692;2022-10-16T07:51:38;16.30;98.40
70820;DHT22;58439;51.046;13.692;2022-10-16T07:54:08;16.50;98.50
70820;DHT22;58439;51.046;13.692;2022-10-16T07:56:36;16.60;98.30
70820;DHT22;58439;51.046;13.692;2022-10-16T07:59:09;16.80;97.80
70820;DHT22;58439;51.046;13.692;2022-10-16T08:01:37;16.90;96.80
70820;DHT22;58439;51.046;13.692;2022-10-16T08:04:05;17.10;96.80
70820;DHT22;58439;51.046;13.692;2022-10-16T08:06:41;17.20;96.40
70820;DHT22;58439;51.046;13.692;2022-10-16T08:09:26;17.40;95.90
70820;DHT22;58439;51.046;13.692;2022-10-16T08:12:09;17.50;95.20
70820;DHT22;58439;51.046;13.692;2022-10-16T08:14:50;17.60;94.30
70820;DHT22;58439;51.046;13.692;2022-10-16T08:17:17;17.60;93.90
70820;DHT22;58439;51.046;13.692;2022-10-16T08:19:45;17.50;94.00
70820;DHT22;58439;51.046;13.692;2022-10-16T08:22:18;17.50;94.30
70820;DHT22;58439;51.046;13.692;2022-10-16T08:24:46;17.50;94.60
70820;DHT22;58439;51.046;13.692;2022-10-16T08:27:30;17.50;94.50
70820;DHT22;58439;51.046;13.692;2022-10-16T08:29:59;17.60;94.70
70820;DHT22;58439;51.046;13.692;2022-10-16T08:32:38;17.80;94.20
70820;DHT22;58439;51.046;13.692;2022-10-16T08:35:58;17.90;93.50
70820;DHT22;58439;51.046;13.692;2022-10-16T08:38:25;18.10;92.80
70820;DHT22;58439;51.046;13.692;2022-10-16T08:47:34;18.40;92.00
70820;DHT22;58439;51.046;13.692;2022-10-16T08:50:14;18.50;92.00
70820;DHT22;58439;51.046;13.692;2022-10-16T08:52:51;18.60;92.10
70820;DHT22;58439;51.046;13.692;2022-10-16T08:58:28;18.80;91.00
70820;DHT22;58439;51.046;13.692;2022-10-16T09:00:59;18.90;91.00
70820;DHT22;58439;51.046;13.692;2022-10-16T09:06:26;19.00;90.00
70820;DHT22;58439;51.046;13.692;2022-10-16T09:09:46;19.10;90.10
70820;DHT22;58439;51.046;13.692;2022-10-16T09:13:49;19.30;89.30
70820;DHT22;58439;51.046;13.692;2022-10-16T09:16:33;19.70;87.40
70820;DHT22;58439;51.046;13.692;2022-10-16T09:23:45;20.20;83.60
70820;DHT22;58439;51.046;13.692;2022-10-16T09:26:35;20.70;82.30
70820;DHT22;58439;51.046;13.692;2022-10-16T09:29:03;21.00;79.50
70820;DHT22;58439;51.046;13.692;2022-10-16T09:38:33;21.30;77.10
70820;DHT22;58439;51.046;13.692;2022-10-16T09:41:29;21.20;76.60
70820;DHT22;58439;51.046;13.692;2022-10-16T09:44:00;21.20;76.80
70820;DHT22;58439;51.046;13.692;2022-10-16T09:46:45;21.30;76.30
70820;DHT22;58439;51.046;13.692;2022-10-16T09:49:38;21.40;74.80
70820;DHT22;58439;51.046;13.692;2022-10-16T09:52:41;21.60;75.00
70820;DHT22;58439;51.046;13.692;2022-10-16T09:55:17;21.70;72.60
70820;DHT22;58439;51.046;13.692;2022-10-16T09:57:51;21.70;71.60
70820;DHT22;58439;51.046;13.692;2022-10-16T10:00:21;21.90;71.50
70820;DHT22;58439;51.046;13.692;2022-10-16T10:02:49;22.10;70.70
70820;DHT22;58439;51.046;13.692;2022-10-16T10:05:22;22.50;70.00
70820;DHT22;58439;51.046;13.692;2022-10-16T10:07:56;22.80;68.20
70820;DHT22;58439;51.046;13.692;2022-10-16T10:10:28;22.90;67.40
70820;DHT22;58439;51.046;13.692;2022-10-16T10:13:00;22.80;66.40
70820;DHT22;58439;51.046;13.692;2022-10-16T10:15:33;22.70;66.60
70820;DHT22;58439;51.046;13.692;2022-10-16T10:18:22;22.80;65.90
70820;DHT22;58439;51.046;13.692;2022-10-16T10:21:15;23.20;64.70
70820;DHT22;58439;51.046;13.692;2022-10-16T10:23:42;23.40;62.40
70820;DHT22;58439;51.046;13.692;2022-10-16T10:26:18;23.50;62.50
70820;DHT22;58439;51.046;13.692;2022-10-16T10:29:06;24.10;61.20
70820;DHT22;58439;51.046;13.692;2022-10-16T10:32:02;25.00;56.90
70820;DHT22;58439;51.046;13.692;2022-10-16T10:35:14;25.10;54.10
70820;DHT22;58439;51.046;13.692;2022-10-16T10:38:27;24.80;55.20
70820;DHT22;58439;51.046;13.692;2022-10-16T10:44:16;24.50;55.20
70820;DHT22;58439;51.046;13.692;2022-10-16T10:53:27;24.50;55.20
70820;DHT22;58439;51.046;13.692;2022-10-16T10:59:40;27.00;47.00
70820;DHT22;58439;51.046;13.692;2022-10-16T11:11:52;27.20;40.40
70820;DHT22;58439;51.046;13.692;2022-10-16T11:14:30;26.00;43.10
70820;DHT22;58439;51.046;13.692;2022-10-16T11:20:16;24.80;47.30
70820;DHT22;58439;51.046;13.692;2022-10-16T11:22:53;24.50;48.50
70820;DHT22;58439;51.046;13.692;2022-10-16T11:28:11;25.10;47.00
70820;DHT22;58439;51.046;13.692;2022-10-16T11:31:02;25.10;47.60
70820;DHT22;58439;51.046;13.692;2022-10-16T11:37:10;24.30;49.20
70820;DHT22;58439;51.046;13.692;2022-10-16T11:39:42;23.90;51.60
70820;DHT22;58439;51.046;13.692;2022-10-16T11:45:00;23.40;54.00
70820;DHT22;58439;51.046;13.692;2022-10-16T11:51:01;23.30;56.00
70820;DHT22;58439;51.046;13.692;2022-10-16T12:00:31;24.60;52.70
70820;DHT22;58439;51.046;13.692;2022-10-16T12:06:14;25.60;47.60
70820;DHT22;58439;51.046;13.692;2022-10-16T12:09:20;26.90;44.90
70820;DHT22;58439;51.046;13.692;2022-10-16T12:11:53;28.60;39.70
70820;DHT22;58439;51.046;13.692;2022-10-16T12:17:35;28.90;38.30
70820;DHT22;58439;51.046;13.692;2022-10-16T12:22:53;27.60;38.40
70820;DHT22;58439;51.046;13.692;2022-10-16T12:25:31;26.70;39.70
70820;DHT22;58439;51.046;13.692;2022-10-16T12:28:04;26.10;41.30
70820;DHT22;58439;51.046;13.692;2022-10-16T12:30:34;25.80;42.60
70820;DHT22;58439;51.046;13.692;2022-10-16T12:33:19;25.60;43.00
70820;DHT22;58439;51.046;13.692;2022-10-16T12:35:51;25.20;44.00
70820;DHT22;58439;51.046;13.692;2022-10-16T12:38:25;25.00;45.40
70820;DHT22;58439;51.046;13.692;2022-10-16T12:41:02;25.10;46.10
70820;DHT22;58439;51.046;13.692;2022-10-16T12:48:50;26.40;42.50
70820;DHT22;58439;51.046;13.692;2022-10-16T12:51:39;27.40;41.70
70820;DHT22;58439;51.046;13.692;2022-10-16T12:54:19;28.40;38.10
70820;DHT22;58439;51.046;13.692;2022-10-16T13:00:32;30.10;34.80
70820;DHT22;58439;51.046;13.692;2022-10-16T13:09:38;28.10;36.40
70820;DHT22;58439;51.046;13.692;2022-10-16T13:12:44;27.50;37.20
70820;DHT22;58439;51.046;13.692;2022-10-16T13:15:26;27.80;37.70
70820;DHT22;58439;51.046;13.692;2022-10-16T13:20:56;26.90;37.90
70820;DHT22;58439;51.046;13.692;2022-10-16T13:23:48;25.90;40.30
70820;DHT22;58439;51.046;13.692;2022-10-16T13:26:49;25.20;42.80
70820;DHT22;58439;51.046;13.692;2022-10-16T13:29:23;24.60;45.60
70820;DHT22;58439;51.046;13.692;2022-10-16T13:31:58;24.30;47.20
70820;DHT22;58439;51.046;13.692;2022-10-16T13:34:28;24.20;48.20
70820;DHT22;58439;51.046;13.692;2022-10-16T13:36:55;24.00;49.40
70820;DHT22;58439;51.046;13.692;2022-10-16T13:39:29;23.80;50.50
70820;DHT22;58439;51.046;13.692;2022-10-16T13:44:40;23.40;55.70
70820;DHT22;58439;51.046;13.692;2022-10-16T13:47:26;23.20;59.60
70820;DHT22;58439;51.046;13.692;2022-10-16T13:50:01;23.00;61.60
70820;DHT22;58439;51.046;13.692;2022-10-16T13:52:36;23.00;62.50
70820;DHT22;58439;51.046;13.692;2022-10-16T13:55:16;23.00;63.10
70820;DHT22;58439;51.046;13.692;2022-10-16T13:57:45;23.10;63.40
70820;DHT22;58439;51.046;13.692;2022-10-16T14:00:24;23.30;64.20
70820;DHT22;58439;51.046;13.692;2022-10-16T14:03:13;23.60;62.90
70820;DHT22;58439;51.046;13.692;2022-10-16T14:05:54;23.70;62.30
70820;DHT22;58439;51.046;13.692;2022-10-16T14:08:25;23.60;62.10
70820;DHT22;58439;51.046;13.692;2022-10-16T14:10:57;23.60;62.80
70820;DHT22;58439;51.046;13.692;2022-10-16T14:13:36;23.40;63.40
70820;DHT22;58439;51.046;13.692;2022-10-16T14:16:11;23.10;65.20
70820;DHT22;58439;51.046;13.692;2022-10-16T14:18:56;22.90;65.30
70820;DHT22;58439;51.046;13.692;2022-10-16T14:21:30;22.80;66.20
70820;DHT22;58439;51.046;13.692;2022-10-16T14:24:43;22.80;66.50
70820;DHT22;58439;51.046;13.692;2022-10-16T14:27:33;22.70;66.90
70820;DHT22;58439;51.046;13.692;2022-10-16T14:30:19;22.60;67.50
70820;DHT22;58439;51.046;13.692;2022-10-16T14:35:39;22.40;68.00
70820;DHT22;58439;51.046;13.692;2022-10-16T14:38:19;22.40;68.30
70820;DHT22;58439;51.046;13.692;2022-10-16T14:40:48;22.30;68.80
70820;DHT22;58439;51.046;13.692;2022-10-16T14:43:32;22.30;69.00
70820;DHT22;58439;51.046;13.692;2022-10-16T14:46:09;22.20;69.10
70820;DHT22;58439;51.046;13.692;2022-10-16T14:48:43;22.20;69.40
70820;DHT22;58439;51.046;13.692;2022-10-16T14:51:14;22.20;69.50
70820;DHT22;58439;51.046;13.692;2022-10-16T14:53:42;22.20;69.40
70820;DHT22;58439;51.046;13.692;2022-10-16T14:56:19;22.20;69.30
70820;DHT22;58439;51.046;13.692;2022-10-16T14:58:50;22.20;69.40
70820;DHT22;58439;51.046;13.692;2022-10-16T15:01:18;22.20;69.30
70820;DHT22;58439;51.046;13.692;2022-10-16T15:03:46;22.20;69.10
70820;DHT22;58439;51.046;13.692;2022-10-16T15:06:15;22.20;69.10
70820;DHT22;58439;51.046;13.692;2022-10-16T15:08:43;22.30;69.10
70820;DHT22;58439;51.046;13.692;2022-10-16T15:11:22;22.30;68.90
70820;DHT22;58439;51.046;13.692;2022-10-16T15:14:11;22.30;68.60
70820;DHT22;58439;51.046;13.692;2022-10-16T15:16:41;22.30;68.30
70820;DHT22;58439;51.046;13.692;2022-10-16T15:19:09;22.30;68.30
70820;DHT22;58439;51.046;13.692;2022-10-16T15:21:36;22.30;68.40
70820;DHT22;58439;51.046;13.692;2022-10-16T15:24:09;22.30;68.30
70820;DHT22;58439;51.046;13.692;2022-10-16T15:26:45;22.20;68.40
70820;DHT22;58439;51.046;13.692;2022-10-16T15:29:16;22.20;68.60
70820;DHT22;58439;51.046;13.692;2022-10-16T15:31:44;22.10;68.70
70820;DHT22;58439;51.046;13.692;2022-10-16T15:34:14;22.00;69.00
70820;DHT22;58439;51.046;13.692;2022-10-16T15:36:41;21.90;69.30
70820;DHT22;58439;51.046;13.692;2022-10-16T15:39:15;21.70;70.70
70820;DHT22;58439;51.046;13.692;2022-10-16T15:41:46;21.60;70.40
70820;DHT22;58439;51.046;13.692;2022-10-16T15:44:45;21.40;70.80
70820;DHT22;58439;51.046;13.692;2022-10-16T15:47:13;21.30;71.80
70820;DHT22;58439;51.046;13.692;2022-10-16T15:49:43;21.20;72.70
70820;DHT22;58439;51.046;13.692;2022-10-16T15:52:15;21.10;73.00
70820;DHT22;58439;51.046;13.692;2022-10-16T15:54:43;21.00;73.70
70820;DHT22;58439;51.046;13.692;2022-10-16T15:57:21;20.80;74.20
70820;DHT22;58439;51.046;13.692;2022-10-16T15:59:49;20.70;75.20
70820;DHT22;58439;51.046;13.692;2022-10-16T16:02:17;20.60;76.50
70820;DHT22;58439;51.046;13.692;2022-10-16T16:04:44;20.50;76.60
70820;DHT22;58439;51.046;13.692;2022-10-16T16:07:44;20.40;77.30
70820;DHT22;58439;51.046;13.692;2022-10-16T16:11:23;20.20;78.30
70820;DHT22;58439;51.046;13.692;2022-10-16T16:13:54;20.00;79.80
70820;DHT22;58439;51.046;13.692;2022-10-16T16:16:42;19.90;81.70
70820;DHT22;58439;51.046;13.692;2022-10-16T16:19:35;19.80;82.00
70820;DHT22;58439;51.046;13.692;2022-10-16T16:24:24;19.70;82.10
70820;DHT22;58439;51.046;13.692;2022-10-16T16:27:02;19.60;82.30
70820;DHT22;58439;51.046;13.692;2022-10-16T16:29:31;19.40;82.10
70820;DHT22;58439;51.046;13.692;2022-10-16T16:32:02;19.30;82.40
70820;DHT22;58439;51.046;13.692;2022-10-16T16:35:07;19.20;82.70
70820;DHT22;58439;51.046;13.692;2022-10-16T16:39:05;19.10;84.00
70820;DHT22;58439;51.046;13.692;2022-10-16T16:49:02;18.60;87.00
70820;DHT22;58439;51.046;13.692;2022-10-16T16:51:30;18.40;87.30
70820;DHT22;58439;51.046;13.692;2022-10-16T16:53:58;18.40;88.30
70820;DHT22;58439;51.046;13.692;2022-10-16T16:56:26;18.30;90.10
70820;DHT22;58439;51.046;13.692;2022-10-16T16:58:55;18.20;90.80
70820;DHT22;58439;51.046;13.692;2022-10-16T17:01:25;18.20;90.20
70820;DHT22;58439;51.046;13.692;2022-10-16T17:03:55;18.00;90.50
70820;DHT22;58439;51.046;13.692;2022-10-16T17:06:26;18.00;91.10
70820;DHT22;58439;51.046;13.692;2022-10-16T17:08:57;17.90;90.90
70820;DHT22;58439;51.046;13.692;2022-10-16T17:11:26;17.90;90.80
70820;DHT22;58439;51.046;13.692;2022-10-16T17:13:55;17.80;91.00
70820;DHT22;58439;51.046;13.692;2022-10-16T17:16:35;17.70;91.10
70820;DHT22;58439;51.046;13.692;2022-10-16T17:19:08;17.60;91.30
70820;DHT22;58439;51.046;13.692;2022-10-16T17:21:38;17.50;92.20
70820;DHT22;58439;51.046;13.692;2022-10-16T17:24:05;17.40;92.20
70820;DHT22;58439;51.046;13.692;2022-10-16T17:26:33;17.40;91.90
70820;DHT22;58439;51.046;13.692;2022-10-16T17:29:04;17.30;91.80
70820;DHT22;58439;51.046;13.692;2022-10-16T17:31:33;17.30;92.10
70820;DHT22;58439;51.046;13.692;2022-10-16T17:34:05;17.30;92.40
70820;DHT22;58439;51.046;13.692;2022-10-16T17:36:35;17.20;92.40
70820;DHT22;58439;51.046;13.692;2022-10-16T17:39:06;17.20;92.70
70820;DHT22;58439;51.046;13.692;2022-10-16T17:41:35;17.10;92.80
70820;DHT22;58439;51.046;13.692;2022-10-16T17:44:04;17.00;93.50
70820;DHT22;58439;51.046;13.692;2022-10-16T17:46:32;17.00;94.00
70820;DHT22;58439;51.046;13.692;2022-10-16T17:49:05;17.00;93.80
70820;DHT22;58439;51.046;13.692;2022-10-16T17:51:33;17.00;93.90
70820;DHT22;58439;51.046;13.692;2022-10-16T17:54:01;17.00;93.90
70820;DHT22;58439;51.046;13.692;2022-10-16T17:56:30;16.90;94.00
70820;DHT22;58439;51.046;13.692;2022-10-16T17:59:00;16.80;93.80
70820;DHT22;58439;51.046;13.692;2022-10-16T18:01:30;16.80;94.30
70820;DHT22;58439;51.046;13.692;2022-10-16T18:04:01;16.80;94.50
70820;DHT22;58439;51.046;13.692;2022-10-16T18:06:33;16.80;94.40
70820;DHT22;58439;51.046;13.692;2022-10-16T18:09:01;16.80;94.40
70820;DHT22;58439;51.046;13.692;2022-10-16T18:11:30;16.80;94.20
70820;DHT22;58439;51.046;13.692;2022-10-16T18:13:58;16.80;94.30
70820;DHT22;58439;51.046;13.692;2022-10-16T18:16:27;16.80;94.00
70820;DHT22;58439;51.046;13.692;2022-10-16T18:18:57;16.80;94.20
70820;DHT22;58439;51.046;13.692;2022-10-16T18:21:26;16.80;94.30
70820;DHT22;58439;51.046;13.692;2022-10-16T18:23:54;16.80;94.40
70820;DHT22;58439;51.046;13.692;2022-10-16T18:26:23;16.80;94.40
70820;DHT22;58439;51.046;13.692;2022-10-16T18:28:53;16.70;94.50
70820;DHT22;58439;51.046;13.692;2022-10-16T18:31:22;16.60;94.70
70820;DHT22;58439;51.046;13.692;2022-10-16T18:33:52;16.70;94.80
70820;DHT22;58439;51.046;13.692;2022-10-16T18:36:27;16.60;94.90
70820;DHT22;58439;51.046;13.692;2022-10-16T18:38:56;16.60;94.90
70820;DHT22;58439;51.046;13.692;2022-10-16T18:41:28;16.60;95.00
70820;DHT22;58439;51.046;13.692;2022-10-16T18:43:58;16.60;95.00
70820;DHT22;58439;51.046;13.692;2022-10-16T18:46:25;16.50;95.20
70820;DHT22;58439;51.046;13.692;2022-10-16T18:48:54;16.50;95.20
70820;DHT22;58439;51.046;13.692;2022-10-16T18:51:25;16.40;95.50
70820;DHT22;58439;51.046;13.692;2022-10-16T18:53:57;16.40;95.70
70820;DHT22;58439;51.046;13.692;2022-10-16T18:56:27;16.40;95.70
70820;DHT22;58439;51.046;13.692;2022-10-16T18:58:58;16.30;95.70
70820;DHT22;58439;51.046;13.692;2022-10-16T19:01:29;16.30;95.90
70820;DHT22;58439;51.046;13.692;2022-10-16T19:04:00;16.30;96.20
70820;DHT22;58439;51.046;13.692;2022-10-16T19:06:32;16.20;96.30
70820;DHT22;58439;51.046;13.692;2022-10-16T19:09:02;16.30;96.30
70820;DHT22;58439;51.046;13.692;2022-10-16T19:11:29;16.30;96.40
70820;DHT22;58439;51.046;13.692;2022-10-16T19:13:57;16.30;96.60
70820;DHT22;58439;51.046;13.692;2022-10-16T19:16:30;16.40;96.60
70820;DHT22;58439;51.046;13.692;2022-10-16T19:19:03;16.40;96.70
70820;DHT22;58439;51.046;13.692;2022-10-16T19:21:35;16.40;96.70
70820;DHT22;58439;51.046;13.692;2022-10-16T19:24:03;16.50;96.60
70820;DHT22;58439;51.046;13.692;2022-10-16T19:26:31;16.50;96.30
70820;DHT22;58439;51.046;13.692;2022-10-16T19:29:05;16.50;96.10
70820;DHT22;58439;51.046;13.692;2022-10-16T19:31:35;16.50;96.20
70820;DHT22;58439;51.046;13.692;2022-10-16T19:34:03;16.50;96.10
70820;DHT22;58439;51.046;13.692;2022-10-16T19:36:37;16.50;96.10
70820;DHT22;58439;51.046;13.692;2022-10-16T19:39:17;16.50;96.10
70820;DHT22;58439;51.046;13.692;2022-10-16T19:42:25;16.50;96.10
70820;DHT22;58439;51.046;13.692;2022-10-16T19:45:06;16.50;96.20
70820;DHT22;58439;51.046;13.692;2022-10-16T20:03:38;16.40;96.30
70820;DHT22;58439;51.046;13.692;2022-10-16T20:06:06;16.40;96.30
70820;DHT22;58439;51.046;13.692;2022-10-16T20:08:34;16.40;96.30
70820;DHT22;58439;51.046;13.692;2022-10-16T20:11:05;16.40;96.30
70820;DHT22;58439;51.046;13.692;2022-10-16T20:13:36;16.40;96.20
70820;DHT22;58439;51.046;13.692;2022-10-16T20:16:14;16.40;96.10
70820;DHT22;58439;51.046;13.692;2022-10-16T20:18:46;16.30;96.10
70820;DHT22;58439;51.046;13.692;2022-10-16T20:21:23;16.30;96.20
70820;DHT22;58439;51.046;13.692;2022-10-16T20:23:53;16.30;96.30
70820;DHT22;58439;51.046;13.692;2022-10-16T20:26:22;16.30;96.30
70820;DHT22;58439;51.046;13.692;2022-10-16T20:28:50;16.30;96.20
70820;DHT22;58439;51.046;13.692;2022-10-16T20:31:21;16.30;96.20
70820;DHT22;58439;51.046;13.692;2022-10-16T20:33:53;16.40;96.20
70820;DHT22;58439;51.046;13.692;2022-10-16T20:36:23;16.40;96.10
70820;DHT22;58439;51.046;13.692;2022-10-16T20:38:52;16.40;96.10
70820;DHT22;58439;51.046;13.692;2022-10-16T20:41:19;16.40;96.10
70820;DHT22;58439;51.046;13.692;2022-10-16T20:43:48;16.40;96.10
70820;DHT22;58439;51.046;13.692;2022-10-16T20:46:20;16.40;96.00
70820;DHT22;58439;51.046;13.692;2022-10-16T20:48:51;16.40;96.00
70820;DHT22;58439;51.046;13.692;2022-10-16T20:51:23;16.40;95.90
70820;DHT22;58439;51.046;13.692;2022-10-16T20:54:02;16.40;95.90
70820;DHT22;58439;51.046;13.692;2022-10-16T20:56:33;16.30;95.80
70820;DHT22;58439;51.046;13.692;2022-10-16T20:59:02;16.20;95.80
70820;DHT22;58439;51.046;13.692;2022-10-16T21:01:31;16.20;95.70
70820;DHT22;58439;51.046;13.692;2022-10-16T21:04:00;16.10;95.70
70820;DHT22;58439;51.046;13.692;2022-10-16T21:06:35;16.00;95.80
70820;DHT22;58439;51.046;13.692;2022-10-16T21:09:05;15.90;95.90
70820;DHT22;58439;51.046;13.692;2022-10-16T21:11:34;15.80;96.20
70820;DHT22;58439;51.046;13.692;2022-10-16T21:14:04;15.70;96.40
70820;DHT22;58439;51.046;13.692;2022-10-16T21:16:33;15.60;96.80
70820;DHT22;58439;51.046;13.692;2022-10-16T21:29:35;15.30;97.60
70820;DHT22;58439;51.046;13.692;2022-10-16T21:48:57;14.90;98.40
70820;DHT22;58439;51.046;13.692;2022-10-16T21:51:28;14.90;98.80
70820;DHT22;58439;51.046;13.692;2022-10-16T21:53:59;14.90;99.60
70820;DHT22;58439;51.046;13.692;2022-10-16T21:56:27;14.90;99.90
70820;DHT22;58439;51.046;13.692;2022-10-16T22:18:36;14.90;99.40
70820;DHT22;58439;51.046;13.692;2022-10-16T22:21:07;14.90;99.40
70820;DHT22;58439;51.046;13.692;2022-10-16T22:23:35;14.90;99.20
70820;DHT22;58439;51.046;13.692;2022-10-16T22:26:06;14.80;99.30
70820;DHT22;58439;51.046;13.692;2022-10-16T22:28:37;14.80;99.50
70820;DHT22;58439;51.046;13.692;2022-10-16T22:31:08;14.70;99.60
70820;DHT22;58439;51.046;13.692;2022-10-16T22:33:39;14.70;99.50
70820;DHT22;58439;51.046;13.692;2022-10-16T22:36:10;14.60;99.50
70820;DHT22;58439;51.046;13.692;2022-10-16T22:38:40;14.60;99.50
70820;DHT22;58439;51.046;13.692;2022-10-16T22:41:10;14.50;99.50
70820;DHT22;58439;51.046;13.692;2022-10-16T22:43:40;14.40;99.70
70820;DHT22;58439;51.046;13.692;2022-10-16T22:46:15;14.30;99.80
70820;DHT22;58439;51.046;13.692;2022-10-16T22:48:44;14.30;99.90
70820;DHT22;58439;51.046;13.692;2022-10-16T22:51:12;14.30;99.90
70820;DHT22;58439;51.046;13.692;2022-10-16T22:53:44;14.30;99.90